Decoded Metar for PAHN (HAINES in AK, USA) (IATA:HNS) | Meteo·Mobile Aviation Weather
aviador You're here:

PAHN Decoded Metar

HAINES in AK, USA
Report Time2019-01-20 10:54:00
UTC Time2019-01-20 11:46:36
Flight Rules vfr VFR
Wind320° at 11 kt
W.Decomp.*RWY 26: 8.4 kt HW 7.1 kt RCW
W.Rank320° ranks 10
Current wind is above 320° avg. (9.1)
Visibility9999 m
Phenomena:N/A
Clouds:Overcast 060 Hf
Expected CloudBase > 2,800 ft AGL from Temp-Dew spread
Ceiling6,000 ft
Temp-7°C (ISA -22)
Dew Point-14°C (58% RH)
AAT-14.3°C
QNH1009 hPa
Density Alt-2,546 ft
Elevation16 ft
Report Wrong Elevation
Raw Report
PAHN 201054Z AUTO 32011KT 10SM OVC060 M07/M14 A2980 RMK AO2 SLP093
T10671139 TSNO=

Extra information for PAHN:More info

Metar Taf Metar & Taf Last 4 Metars F.Rules Stats Wind Profile Meteogram Temp Stats Airport Information Weather charts Add Link Nearby VenuesMetar ALERT Operation Metar Decoded Social comments

AIRNAV info for PAHN